sensor_id;sensor_type;location;lat;lon;timestamp;pressure;altitude;pressure_sealevel;temperature;humidity
32456;BME280;18912;43.270;27.942;2023-01-09T00:01:40;98734.63;;;12.32;69.68
32456;BME280;18912;43.270;27.942;2023-01-09T00:04:06;98741.19;;;12.57;67.75
32456;BME280;18912;43.270;27.942;2023-01-09T00:06:31;98746.16;;;12.47;68.10
32456;BME280;18912;43.270;27.942;2023-01-09T00:08:57;98744.91;;;12.50;68.52
32456;BME280;18912;43.270;27.942;2023-01-09T00:11:22;98741.97;;;12.45;69.39
32456;BME280;18912;43.270;27.942;2023-01-09T00:13:48;98738.22;;;12.46;69.71
32456;BME280;18912;43.270;27.942;2023-01-09T00:16:14;98733.41;;;12.35;69.32
32456;BME280;18912;43.270;27.942;2023-01-09T00:18:40;98736.97;;;12.42;69.28
32456;BME280;18912;43.270;27.942;2023-01-09T00:21:07;98738.16;;;12.26;69.15
32456;BME280;18912;43.270;27.942;2023-01-09T00:23:33;98746.88;;;12.15;69.99
32456;BME280;18912;43.270;27.942;2023-01-09T00:26:07;98744.84;;;12.30;70.02
32456;BME280;18912;43.270;27.942;2023-01-09T00:28:34;98733.84;;;12.58;68.35
32456;BME280;18912;43.270;27.942;2023-01-09T00:31:01;98741.00;;;12.72;67.07
32456;BME280;18912;43.270;27.942;2023-01-09T00:36:21;98728.16;;;12.33;68.85
32456;BME280;18912;43.270;27.942;2023-01-09T00:38:48;98738.38;;;12.31;68.12
32456;BME280;18912;43.270;27.942;2023-01-09T00:41:18;98734.38;;;12.27;69.18
32456;BME280;18912;43.270;27.942;2023-01-09T00:43:49;98724.03;;;12.50;68.31
32456;BME280;18912;43.270;27.942;2023-01-09T00:46:18;98720.28;;;11.91;70.04
32456;BME280;18912;43.270;27.942;2023-01-09T00:48:46;98731.41;;;12.09;70.41
32456;BME280;18912;43.270;27.942;2023-01-09T00:51:13;98729.84;;;12.41;68.66
32456;BME280;18912;43.270;27.942;2023-01-09T00:53:40;98723.41;;;12.42;68.83
32456;BME280;18912;43.270;27.942;2023-01-09T00:56:09;98735.75;;;12.57;68.08
32456;BME280;18912;43.270;27.942;2023-01-09T00:58:36;98714.38;;;12.28;69.85
32456;BME280;18912;43.270;27.942;2023-01-09T01:01:01;98714.81;;;12.25;69.56
32456;BME280;18912;43.270;27.942;2023-01-09T01:03:27;98713.41;;;12.42;68.68
32456;BME280;18912;43.270;27.942;2023-01-09T01:05:53;98714.47;;;12.54;68.14
32456;BME280;18912;43.270;27.942;2023-01-09T01:08:37;98702.38;;;12.63;68.03
32456;BME280;18912;43.270;27.942;2023-01-09T01:11:04;98708.88;;;12.02;69.73
32456;BME280;18912;43.270;27.942;2023-01-09T01:13:30;98704.22;;;12.43;68.70
32456;BME280;18912;43.270;27.942;2023-01-09T01:15:56;98694.81;;;11.85;69.98
32456;BME280;18912;43.270;27.942;2023-01-09T01:18:21;98691.47;;;12.31;68.74
32456;BME280;18912;43.270;27.942;2023-01-09T01:20:47;98689.59;;;11.77;70.67
32456;BME280;18912;43.270;27.942;2023-01-09T01:23:12;98685.34;;;12.09;70.07
32456;BME280;18912;43.270;27.942;2023-01-09T01:25:40;98686.00;;;12.17;70.14
32456;BME280;18912;43.270;27.942;2023-01-09T01:28:06;98678.19;;;12.75;68.55
32456;BME280;18912;43.270;27.942;2023-01-09T01:30:32;98670.84;;;12.56;68.43
32456;BME280;18912;43.270;27.942;2023-01-09T01:32:57;98674.44;;;12.82;67.28
32456;BME280;18912;43.270;27.942;2023-01-09T01:35:23;98667.06;;;12.31;69.23
32456;BME280;18912;43.270;27.942;2023-01-09T01:37:51;98655.84;;;12.40;69.52
32456;BME280;18912;43.270;27.942;2023-01-09T01:40:16;98653.66;;;12.16;70.23
32456;BME280;18912;43.270;27.942;2023-01-09T01:42:49;98661.25;;;12.40;69.15
32456;BME280;18912;43.270;27.942;2023-01-09T01:52:41;98641.41;;;12.27;68.83
32456;BME280;18912;43.270;27.942;2023-01-09T01:55:09;98646.00;;;12.39;68.76
32456;BME280;18912;43.270;27.942;2023-01-09T01:57:36;98637.44;;;12.29;69.18
32456;BME280;18912;43.270;27.942;2023-01-09T02:00:05;98642.13;;;11.88;69.61
32456;BME280;18912;43.270;27.942;2023-01-09T02:02:31;98629.88;;;12.05;69.82
32456;BME280;18912;43.270;27.942;2023-01-09T02:04:59;98620.91;;;12.04;69.82
32456;BME280;18912;43.270;27.942;2023-01-09T02:07:25;98618.66;;;12.28;69.04
32456;BME280;18912;43.270;27.942;2023-01-09T02:09:52;98629.94;;;12.25;69.05
32456;BME280;18912;43.270;27.942;2023-01-09T02:12:21;98618.72;;;12.47;68.19
32456;BME280;18912;43.270;27.942;2023-01-09T02:14:56;98612.66;;;12.32;68.31
32456;BME280;18912;43.270;27.942;2023-01-09T02:22:40;98622.75;;;11.91;70.13
32456;BME280;18912;43.270;27.942;2023-01-09T02:25:36;98612.78;;;11.98;69.90
32456;BME280;18912;43.270;27.942;2023-01-09T02:30:55;98629.31;;;12.36;68.71
32456;BME280;18912;43.270;27.942;2023-01-09T02:41:35;98620.16;;;12.30;68.82
32456;BME280;18912;43.270;27.942;2023-01-09T02:44:19;98604.13;;;12.74;67.23
32456;BME280;18912;43.270;27.942;2023-01-09T02:46:44;98613.84;;;12.16;70.41
32456;BME280;18912;43.270;27.942;2023-01-09T02:49:11;98610.88;;;11.92;70.96
32456;BME280;18912;43.270;27.942;2023-01-09T02:51:52;98612.91;;;11.77;72.46
32456;BME280;18912;43.270;27.942;2023-01-09T02:58:09;98604.31;;;12.66;69.62
32456;BME280;18912;43.270;27.942;2023-01-09T03:05:55;98608.09;;;12.91;68.82
32456;BME280;18912;43.270;27.942;2023-01-09T03:08:30;98596.81;;;12.42;70.77
32456;BME280;18912;43.270;27.942;2023-01-09T03:11:02;98601.31;;;12.02;72.36
32456;BME280;18912;43.270;27.942;2023-01-09T03:13:52;98608.06;;;12.52;70.84
32456;BME280;18912;43.270;27.942;2023-01-09T03:16:23;98600.13;;;12.31;70.59
32456;BME280;18912;43.270;27.942;2023-01-09T03:18:50;98599.47;;;12.29;71.01
32456;BME280;18912;43.270;27.942;2023-01-09T03:21:16;98606.00;;;12.61;68.86
32456;BME280;18912;43.270;27.942;2023-01-09T03:23:53;98593.25;;;12.29;70.40
32456;BME280;18912;43.270;27.942;2023-01-09T03:26:20;98597.66;;;12.49;70.07
32456;BME280;18912;43.270;27.942;2023-01-09T03:28:46;98608.69;;;12.80;68.88
32456;BME280;18912;43.270;27.942;2023-01-09T03:31:13;98602.66;;;12.52;69.48
32456;BME280;18912;43.270;27.942;2023-01-09T03:33:39;98612.22;;;12.35;70.87
32456;BME280;18912;43.270;27.942;2023-01-09T03:36:05;98606.81;;;12.68;69.17
32456;BME280;18912;43.270;27.942;2023-01-09T03:38:31;98599.72;;;12.34;70.49
32456;BME280;18912;43.270;27.942;2023-01-09T03:40:57;98607.22;;;12.45;70.34
32456;BME280;18912;43.270;27.942;2023-01-09T03:43:22;98608.06;;;12.65;68.75
32456;BME280;18912;43.270;27.942;2023-01-09T03:45:48;98606.81;;;12.48;69.84
32456;BME280;18912;43.270;27.942;2023-01-09T03:48:13;98621.84;;;12.83;68.54
32456;BME280;18912;43.270;27.942;2023-01-09T03:50:39;98607.66;;;12.75;69.20
32456;BME280;18912;43.270;27.942;2023-01-09T03:53:07;98618.94;;;12.59;70.10
32456;BME280;18912;43.270;27.942;2023-01-09T03:55:32;98609.31;;;12.56;69.58
32456;BME280;18912;43.270;27.942;2023-01-09T03:57:58;98603.47;;;12.46;70.31
32456;BME280;18912;43.270;27.942;2023-01-09T04:00:23;98615.56;;;12.37;71.35
32456;BME280;18912;43.270;27.942;2023-01-09T04:02:49;98600.16;;;12.51;70.69
32456;BME280;18912;43.270;27.942;2023-01-09T04:05:14;98613.50;;;12.52;70.67
32456;BME280;18912;43.270;27.942;2023-01-09T04:07:40;98611.19;;;12.88;69.71
32456;BME280;18912;43.270;27.942;2023-01-09T04:10:05;98619.75;;;12.46;71.03
32456;BME280;18912;43.270;27.942;2023-01-09T04:12:31;98614.31;;;12.46;71.43
32456;BME280;18912;43.270;27.942;2023-01-09T04:14:56;98606.78;;;12.22;72.34
32456;BME280;18912;43.270;27.942;2023-01-09T04:17:22;98612.41;;;12.27;71.61
32456;BME280;18912;43.270;27.942;2023-01-09T04:19:47;98608.47;;;12.56;70.39
32456;BME280;18912;43.270;27.942;2023-01-09T04:22:13;98605.34;;;12.33;70.43
32456;BME280;18912;43.270;27.942;2023-01-09T04:24:38;98606.81;;;12.55;69.79
32456;BME280;18912;43.270;27.942;2023-01-09T04:27:04;98606.97;;;12.14;70.04
32456;BME280;18912;43.270;27.942;2023-01-09T04:29:30;98603.56;;;11.86;71.58
32456;BME280;18912;43.270;27.942;2023-01-09T04:31:55;98602.59;;;12.13;70.64
32456;BME280;18912;43.270;27.942;2023-01-09T04:34:20;98594.88;;;12.03;71.22
32456;BME280;18912;43.270;27.942;2023-01-09T04:36:52;98602.00;;;12.37;69.92
32456;BME280;18912;43.270;27.942;2023-01-09T04:39:19;98597.81;;;12.15;70.88
32456;BME280;18912;43.270;27.942;2023-01-09T04:41:44;98583.63;;;12.19;71.41
32456;BME280;18912;43.270;27.942;2023-01-09T04:44:14;98581.34;;;12.23;71.87
32456;BME280;18912;43.270;27.942;2023-01-09T04:46:39;98579.03;;;12.00;72.93
32456;BME280;18912;43.270;27.942;2023-01-09T04:49:05;98584.09;;;12.36;71.36
32456;BME280;18912;43.270;27.942;2023-01-09T04:51:30;98582.00;;;12.45;70.71
32456;BME280;18912;43.270;27.942;2023-01-09T04:53:56;98596.81;;;12.55;70.71
32456;BME280;18912;43.270;27.942;2023-01-09T04:56:21;98592.41;;;12.41;71.11
32456;BME280;18912;43.270;27.942;2023-01-09T04:58:47;98596.13;;;12.14;72.18
32456;BME280;18912;43.270;27.942;2023-01-09T05:01:12;98600.91;;;12.05;72.97
32456;BME280;18912;43.270;27.942;2023-01-09T05:03:38;98600.75;;;12.46;72.00
32456;BME280;18912;43.270;27.942;2023-01-09T05:06:03;98605.53;;;12.25;73.39
32456;BME280;18912;43.270;27.942;2023-01-09T05:08:29;98598.06;;;12.85;71.23
32456;BME280;18912;43.270;27.942;2023-01-09T05:10:54;98601.19;;;12.95;70.40
32456;BME280;18912;43.270;27.942;2023-01-09T05:13:20;98599.94;;;12.85;70.74
32456;BME280;18912;43.270;27.942;2023-01-09T05:15:45;98607.25;;;12.65;71.92
32456;BME280;18912;43.270;27.942;2023-01-09T05:18:10;98589.09;;;12.59;72.65
32456;BME280;18912;43.270;27.942;2023-01-09T05:20:36;98600.56;;;12.74;71.64
32456;BME280;18912;43.270;27.942;2023-01-09T05:23:02;98596.53;;;12.11;72.87
32456;BME280;18912;43.270;27.942;2023-01-09T05:25:27;98593.34;;;11.88;73.21
32456;BME280;18912;43.270;27.942;2023-01-09T05:27:53;98588.44;;;12.17;71.36
32456;BME280;18912;43.270;27.942;2023-01-09T05:30:19;98599.69;;;12.28;71.04
32456;BME280;18912;43.270;27.942;2023-01-09T05:32:44;98587.22;;;12.40;70.61
32456;BME280;18912;43.270;27.942;2023-01-09T05:35:10;98585.91;;;12.09;71.92
32456;BME280;18912;43.270;27.942;2023-01-09T05:37:35;98594.16;;;11.82;72.18
32456;BME280;18912;43.270;27.942;2023-01-09T05:40:01;98585.88;;;11.90;71.38
32456;BME280;18912;43.270;27.942;2023-01-09T05:42:26;98599.28;;;12.24;70.70
32456;BME280;18912;43.270;27.942;2023-01-09T05:44:52;98593.84;;;12.24;70.27
32456;BME280;18912;43.270;27.942;2023-01-09T05:47:17;98590.97;;;12.32;70.18
32456;BME280;18912;43.270;27.942;2023-01-09T05:49:43;98595.13;;;12.28;70.18
32456;BME280;18912;43.270;27.942;2023-01-09T05:52:08;98601.84;;;12.65;70.03
32456;BME280;18912;43.270;27.942;2023-01-09T05:54:34;98597.63;;;12.56;70.27
32456;BME280;18912;43.270;27.942;2023-01-09T05:56:59;98591.81;;;12.33;70.81
32456;BME280;18912;43.270;27.942;2023-01-09T05:59:24;98599.03;;;12.12;70.93
32456;BME280;18912;43.270;27.942;2023-01-09T06:01:50;98605.13;;;12.54;69.80
32456;BME280;18912;43.270;27.942;2023-01-09T06:04:15;98596.78;;;12.29;70.09
32456;BME280;18912;43.270;27.942;2023-01-09T06:06:41;98600.13;;;12.25;70.11
32456;BME280;18912;43.270;27.942;2023-01-09T06:09:06;98597.44;;;12.70;69.10
32456;BME280;18912;43.270;27.942;2023-01-09T06:11:32;98600.78;;;12.85;68.23
32456;BME280;18912;43.270;27.942;2023-01-09T06:14:03;98599.31;;;12.89;68.26
32456;BME280;18912;43.270;27.942;2023-01-09T06:16:29;98614.75;;;12.95;67.75
32456;BME280;18912;43.270;27.942;2023-01-09T06:18:54;98608.94;;;12.59;69.13
32456;BME280;18912;43.270;27.942;2023-01-09T06:21:20;98606.63;;;12.50;69.50
32456;BME280;18912;43.270;27.942;2023-01-09T06:23:46;98604.94;;;12.62;69.21
32456;BME280;18912;43.270;27.942;2023-01-09T06:26:11;98606.72;;;12.02;70.93
32456;BME280;18912;43.270;27.942;2023-01-09T06:28:36;98594.31;;;12.60;69.33
32456;BME280;18912;43.270;27.942;2023-01-09T06:31:02;98607.44;;;12.31;70.56
32456;BME280;18912;43.270;27.942;2023-01-09T06:33:28;98604.94;;;12.94;69.01
32456;BME280;18912;43.270;27.942;2023-01-09T06:35:53;98598.69;;;13.20;67.73
32456;BME280;18912;43.270;27.942;2023-01-09T06:38:19;98600.78;;;13.11;68.22
32456;BME280;18912;43.270;27.942;2023-01-09T06:40:44;98604.72;;;12.37;69.88
32456;BME280;18912;43.270;27.942;2023-01-09T06:43:10;98599.75;;;12.67;70.21
32456;BME280;18912;43.270;27.942;2023-01-09T06:45:35;98591.81;;;12.72;70.18
32456;BME280;18912;43.270;27.942;2023-01-09T06:48:01;98591.16;;;12.24;71.63
32456;BME280;18912;43.270;27.942;2023-01-09T06:50:26;98597.63;;;13.01;69.92
32456;BME280;18912;43.270;27.942;2023-01-09T06:52:52;98595.38;;;12.59;70.28
32456;BME280;18912;43.270;27.942;2023-01-09T06:55:17;98598.47;;;12.56;70.52
32456;BME280;18912;43.270;27.942;2023-01-09T06:57:43;98601.81;;;12.71;69.74
32456;BME280;18912;43.270;27.942;2023-01-09T07:00:09;98593.25;;;13.13;68.33
32456;BME280;18912;43.270;27.942;2023-01-09T07:02:34;98593.84;;;13.29;68.74
32456;BME280;18912;43.270;27.942;2023-01-09T07:05:00;98593.88;;;13.09;70.05
32456;BME280;18912;43.270;27.942;2023-01-09T07:07:25;98593.47;;;13.05;69.59
32456;BME280;18912;43.270;27.942;2023-01-09T07:09:51;98582.22;;;12.76;69.74
32456;BME280;18912;43.270;27.942;2023-01-09T07:12:16;98586.75;;;13.14;68.25
32456;BME280;18912;43.270;27.942;2023-01-09T07:14:42;98588.00;;;13.25;67.87
32456;BME280;18912;43.270;27.942;2023-01-09T07:17:11;98612.03;;;12.89;69.49
32456;BME280;18912;43.270;27.942;2023-01-09T07:19:37;98597.19;;;13.24;69.43
32456;BME280;18912;43.270;27.942;2023-01-09T07:22:03;98602.44;;;12.93;70.95
32456;BME280;18912;43.270;27.942;2023-01-09T07:24:28;98590.34;;;12.56;72.76
32456;BME280;18912;43.270;27.942;2023-01-09T07:26:53;98599.28;;;12.96;72.06
32456;BME280;18912;43.270;27.942;2023-01-09T07:29:19;98593.06;;;12.76;72.74
32456;BME280;18912;43.270;27.942;2023-01-09T07:31:45;98595.34;;;12.53;71.96
32456;BME280;18912;43.270;27.942;2023-01-09T07:34:11;98590.09;;;13.17;69.51
32456;BME280;18912;43.270;27.942;2023-01-09T07:36:36;98587.81;;;12.94;69.17
32456;BME280;18912;43.270;27.942;2023-01-09T07:39:02;98588.03;;;13.12;68.69
32456;BME280;18912;43.270;27.942;2023-01-09T07:41:28;98579.25;;;13.17;69.20
32456;BME280;18912;43.270;27.942;2023-01-09T07:43:53;98602.22;;;12.75;70.41
32456;BME280;18912;43.270;27.942;2023-01-09T07:46:19;98589.09;;;12.52;69.98
32456;BME280;18912;43.270;27.942;2023-01-09T07:48:44;98591.81;;;12.91;68.05
32456;BME280;18912;43.270;27.942;2023-01-09T07:51:10;98591.78;;;13.18;67.62
32456;BME280;18912;43.270;27.942;2023-01-09T07:53:35;98606.84;;;12.87;68.12
32456;BME280;18912;43.270;27.942;2023-01-09T07:56:01;98594.75;;;12.70;68.26
32456;BME280;18912;43.270;27.942;2023-01-09T07:58:26;98594.31;;;12.47;67.99
32456;BME280;18912;43.270;27.942;2023-01-09T08:00:52;98595.16;;;12.74;67.46
32456;BME280;18912;43.270;27.942;2023-01-09T08:03:17;98585.91;;;13.27;65.90
32456;BME280;18912;43.270;27.942;2023-01-09T08:05:42;98587.84;;;12.87;67.58
32456;BME280;18912;43.270;27.942;2023-01-09T08:08:08;98574.25;;;13.00;67.24
32456;BME280;18912;43.270;27.942;2023-01-09T08:10:33;98582.59;;;12.92;66.59
32456;BME280;18912;43.270;27.942;2023-01-09T08:12:59;98584.88;;;13.15;66.51
32456;BME280;18912;43.270;27.942;2023-01-09T08:15:24;98596.41;;;12.65;68.20
32456;BME280;18912;43.270;27.942;2023-01-09T08:17:50;98583.88;;;12.77;69.20
32456;BME280;18912;43.270;27.942;2023-01-09T08:20:16;98592.44;;;13.06;69.11
32456;BME280;18912;43.270;27.942;2023-01-09T08:22:43;98581.72;;;13.31;66.29
32456;BME280;18912;43.270;27.942;2023-01-09T08:25:09;98577.78;;;13.21;66.85
32456;BME280;18912;43.270;27.942;2023-01-09T08:27:34;98581.97;;;13.17;67.51
32456;BME280;18912;43.270;27.942;2023-01-09T08:30:00;98579.69;;;13.20;67.39
32456;BME280;18912;43.270;27.942;2023-01-09T08:32:26;98580.31;;;13.16;67.12
32456;BME280;18912;43.270;27.942;2023-01-09T08:34:51;98581.13;;;12.96;67.61
32456;BME280;18912;43.270;27.942;2023-01-09T08:37:17;98580.09;;;13.17;66.88
32456;BME280;18912;43.270;27.942;2023-01-09T08:39:42;98599.81;;;13.57;66.48
32456;BME280;18912;43.270;27.942;2023-01-09T08:42:07;98579.66;;;12.94;67.29
32456;BME280;18912;43.270;27.942;2023-01-09T08:44:51;98567.31;;;13.24;66.62
32456;BME280;18912;43.270;27.942;2023-01-09T08:47:35;98553.38;;;13.07;65.66
32456;BME280;18912;43.270;27.942;2023-01-09T08:50:01;98551.56;;;13.52;66.73
32456;BME280;18912;43.270;27.942;2023-01-09T08:52:28;98558.34;;;14.12;64.18
32456;BME280;18912;43.270;27.942;2023-01-09T08:54:55;98559.06;;;13.63;64.89
32456;BME280;18912;43.270;27.942;2023-01-09T08:57:21;98562.47;;;13.46;64.25
32456;BME280;18912;43.270;27.942;2023-01-09T08:59:46;98564.59;;;13.24;67.04
32456;BME280;18912;43.270;27.942;2023-01-09T09:02:12;98543.25;;;13.41;66.62
32456;BME280;18912;43.270;27.942;2023-01-09T09:04:37;98532.66;;;13.77;65.46
32456;BME280;18912;43.270;27.942;2023-01-09T09:07:03;98539.50;;;13.42;65.37
32456;BME280;18912;43.270;27.942;2023-01-09T09:09:28;98538.75;;;13.22;66.68
32456;BME280;18912;43.270;27.942;2023-01-09T09:11:53;98544.53;;;13.38;66.07
32456;BME280;18912;43.270;27.942;2023-01-09T09:14:19;98538.31;;;14.06;64.93
32456;BME280;18912;43.270;27.942;2023-01-09T09:17:03;98522.00;;;13.25;66.24
32456;BME280;18912;43.270;27.942;2023-01-09T09:19:29;98511.94;;;13.32;65.95
32456;BME280;18912;43.270;27.942;2023-01-09T09:21:54;98514.78;;;13.94;64.00
32456;BME280;18912;43.270;27.942;2023-01-09T09:24:20;98503.84;;;13.69;65.00
32456;BME280;18912;43.270;27.942;2023-01-09T09:26:45;98498.00;;;13.66;64.97
32456;BME280;18912;43.270;27.942;2023-01-09T09:29:11;98509.31;;;13.63;64.59
32456;BME280;18912;43.270;27.942;2023-01-09T09:31:37;98503.78;;;13.45;64.80
32456;BME280;18912;43.270;27.942;2023-01-09T09:34:04;98497.50;;;13.82;62.99
32456;BME280;18912;43.270;27.942;2023-01-09T09:36:29;98502.03;;;13.57;63.52
32456;BME280;18912;43.270;27.942;2023-01-09T09:38:55;98518.84;;;13.78;64.15
32456;BME280;18912;43.270;27.942;2023-01-09T09:49:54;98490.75;;;13.09;66.46
32456;BME280;18912;43.270;27.942;2023-01-09T09:54:57;98473.84;;;13.58;66.41
32456;BME280;18912;43.270;27.942;2023-01-09T09:57:34;98468.84;;;13.10;67.16
32456;BME280;18912;43.270;27.942;2023-01-09T10:00:03;98479.66;;;13.61;66.46
32456;BME280;18912;43.270;27.942;2023-01-09T10:02:47;98475.47;;;13.59;65.66
32456;BME280;18912;43.270;27.942;2023-01-09T10:05:45;98459.56;;;13.62;66.94
32456;BME280;18912;43.270;27.942;2023-01-09T10:08:23;98475.84;;;13.31;67.73
32456;BME280;18912;43.270;27.942;2023-01-09T10:10:52;98480.69;;;13.60;66.30
32456;BME280;18912;43.270;27.942;2023-01-09T10:13:22;98457.34;;;13.53;64.54
32456;BME280;18912;43.270;27.942;2023-01-09T10:16:40;98448.63;;;13.75;64.59
32456;BME280;18912;43.270;27.942;2023-01-09T10:27:42;98444.38;;;13.86;65.45
32456;BME280;18912;43.270;27.942;2023-01-09T10:35:58;98443.28;;;14.18;64.27
32456;BME280;18912;43.270;27.942;2023-01-09T10:38:35;98430.66;;;13.74;64.83
32456;BME280;18912;43.270;27.942;2023-01-09T10:41:07;98428.94;;;14.11;63.79
32456;BME280;18912;43.270;27.942;2023-01-09T10:43:41;98448.41;;;13.39;65.78
32456;BME280;18912;43.270;27.942;2023-01-09T10:46:14;98421.69;;;13.74;64.84
32456;BME280;18912;43.270;27.942;2023-01-09T10:48:49;98425.31;;;13.61;65.24
32456;BME280;18912;43.270;27.942;2023-01-09T10:51:21;98415.19;;;13.44;67.95
32456;BME280;18912;43.270;27.942;2023-01-09T10:53:50;98408.72;;;14.00;65.46
32456;BME280;18912;43.270;27.942;2023-01-09T10:56:23;98415.38;;;13.49;66.06
32456;BME280;18912;43.270;27.942;2023-01-09T10:58:51;98414.88;;;13.27;67.14
32456;BME280;18912;43.270;27.942;2023-01-09T11:03:49;98403.88;;;14.34;66.08
32456;BME280;18912;43.270;27.942;2023-01-09T11:06:25;98392.41;;;14.68;63.47
32456;BME280;18912;43.270;27.942;2023-01-09T11:08:55;98394.91;;;14.02;64.89
32456;BME280;18912;43.270;27.942;2023-01-09T11:11:37;98406.88;;;14.19;63.94
32456;BME280;18912;43.270;27.942;2023-01-09T11:16:59;98405.28;;;13.87;66.97
32456;BME280;18912;43.270;27.942;2023-01-09T11:19:26;98389.88;;;13.81;66.11
32456;BME280;18912;43.270;27.942;2023-01-09T11:22:14;98387.34;;;13.55;66.71
32456;BME280;18912;43.270;27.942;2023-01-09T11:24:40;98382.50;;;13.88;66.50
32456;BME280;18912;43.270;27.942;2023-01-09T11:29:38;98392.25;;;14.20;63.28
32456;BME280;18912;43.270;27.942;2023-01-09T11:32:04;98379.22;;;14.04;64.38
32456;BME280;18912;43.270;27.942;2023-01-09T11:34:32;98392.09;;;14.15;64.93
32456;BME280;18912;43.270;27.942;2023-01-09T11:37:25;98375.25;;;14.00;66.78
32456;BME280;18912;43.270;27.942;2023-01-09T11:39:53;98393.63;;;13.80;67.44
32456;BME280;18912;43.270;27.942;2023-01-09T11:42:20;98369.06;;;13.93;65.21
32456;BME280;18912;43.270;27.942;2023-01-09T11:45:14;98380.34;;;13.41;66.63
32456;BME280;18912;43.270;27.942;2023-01-09T11:47:40;98359.06;;;13.87;66.58
32456;BME280;18912;43.270;27.942;2023-01-09T11:50:09;98379.50;;;13.96;67.05
32456;BME280;18912;43.270;27.942;2023-01-09T11:52:41;98371.03;;;13.55;65.34
32456;BME280;18912;43.270;27.942;2023-01-09T11:55:10;98367.38;;;14.41;65.58
32456;BME280;18912;43.270;27.942;2023-01-09T11:57:36;98364.53;;;14.54;62.94
32456;BME280;18912;43.270;27.942;2023-01-09T12:05:30;98362.38;;;14.38;62.28
32456;BME280;18912;43.270;27.942;2023-01-09T12:18:53;98353.59;;;13.69;65.92
32456;BME280;18912;43.270;27.942;2023-01-09T12:21:33;98359.16;;;14.05;65.76
32456;BME280;18912;43.270;27.942;2023-01-09T12:34:38;98344.19;;;13.96;66.20
32456;BME280;18912;43.270;27.942;2023-01-09T12:54:11;98326.06;;;13.65;68.48
32456;BME280;18912;43.270;27.942;2023-01-09T12:56:46;98330.31;;;13.55;68.11
32456;BME280;18912;43.270;27.942;2023-01-09T12:59:26;98324.09;;;13.72;68.67
32456;BME280;18912;43.270;27.942;2023-01-09T13:02:22;98329.88;;;13.58;70.06
32456;BME280;18912;43.270;27.942;2023-01-09T13:05:00;98334.25;;;13.59;70.04
32456;BME280;18912;43.270;27.942;2023-01-09T13:07:33;98323.69;;;13.20;69.66
32456;BME280;18912;43.270;27.942;2023-01-09T13:10:18;98321.00;;;13.93;67.99
32456;BME280;18912;43.270;27.942;2023-01-09T13:12:47;98329.38;;;14.10;67.75
32456;BME280;18912;43.270;27.942;2023-01-09T13:15:28;98328.13;;;13.39;72.28
32456;BME280;18912;43.270;27.942;2023-01-09T13:20:43;98331.69;;;14.13;67.36
32456;BME280;18912;43.270;27.942;2023-01-09T13:23:16;98334.34;;;13.46;69.94
32456;BME280;18912;43.270;27.942;2023-01-09T13:25:48;98336.31;;;13.63;67.99
32456;BME280;18912;43.270;27.942;2023-01-09T13:28:30;98331.66;;;13.70;67.42
32456;BME280;18912;43.270;27.942;2023-01-09T13:33:39;98329.47;;;13.30;68.50
32456;BME280;18912;43.270;27.942;2023-01-09T13:36:32;98323.75;;;13.62;67.46
32456;BME280;18912;43.270;27.942;2023-01-09T13:39:01;98328.16;;;13.63;67.17
32456;BME280;18912;43.270;27.942;2023-01-09T13:41:26;98316.06;;;13.59;67.37
32456;BME280;18912;43.270;27.942;2023-01-09T13:46:48;98331.84;;;13.44;68.52
32456;BME280;18912;43.270;27.942;2023-01-09T13:59:48;98324.25;;;13.53;69.33
32456;BME280;18912;43.270;27.942;2023-01-09T14:04:58;98303.47;;;13.65;67.89
32456;BME280;18912;43.270;27.942;2023-01-09T14:07:28;98319.56;;;13.10;69.88
32456;BME280;18912;43.270;27.942;2023-01-09T14:09:59;98302.00;;;13.69;67.42
32456;BME280;18912;43.270;27.942;2023-01-09T14:12:28;98310.41;;;13.36;68.68
32456;BME280;18912;43.270;27.942;2023-01-09T14:14:58;98302.84;;;13.13;69.77
32456;BME280;18912;43.270;27.942;2023-01-09T14:19:56;98311.53;;;12.84;70.44
32456;BME280;18912;43.270;27.942;2023-01-09T14:22:28;98301.59;;;13.09;69.48
32456;BME280;18912;43.270;27.942;2023-01-09T14:25:08;98310.84;;;12.51;72.47
32456;BME280;18912;43.270;27.942;2023-01-09T14:30:29;98290.13;;;12.70;72.17
32456;BME280;18912;43.270;27.942;2023-01-09T14:35:43;98286.94;;;12.79;71.36
32456;BME280;18912;43.270;27.942;2023-01-09T14:46:15;98264.94;;;12.94;71.99
32456;BME280;18912;43.270;27.942;2023-01-09T14:48:56;98263.00;;;12.63;72.84
32456;BME280;18912;43.270;27.942;2023-01-09T14:51:24;98268.72;;;12.55;73.18
32456;BME280;18912;43.270;27.942;2023-01-09T14:53:52;98262.59;;;12.66;72.97
32456;BME280;18912;43.270;27.942;2023-01-09T14:56:45;98266.84;;;12.49;73.71
32456;BME280;18912;43.270;27.942;2023-01-09T14:59:12;98262.03;;;12.89;72.53
32456;BME280;18912;43.270;27.942;2023-01-09T15:01:41;98256.66;;;12.45;74.17
32456;BME280;18912;43.270;27.942;2023-01-09T15:04:34;98264.06;;;12.62;74.01
32456;BME280;18912;43.270;27.942;2023-01-09T15:07:03;98251.66;;;12.79;72.70
32456;BME280;18912;43.270;27.942;2023-01-09T15:09:42;98247.00;;;12.93;72.01
32456;BME280;18912;43.270;27.942;2023-01-09T15:12:17;98266.25;;;12.47;72.83
32456;BME280;18912;43.270;27.942;2023-01-09T15:14:45;98245.94;;;12.56;73.31
32456;BME280;18912;43.270;27.942;2023-01-09T15:17:20;98236.69;;;12.33;74.37
32456;BME280;18912;43.270;27.942;2023-01-09T15:19:47;98230.22;;;12.71;71.71
32456;BME280;18912;43.270;27.942;2023-01-09T15:22:22;98218.00;;;12.56;72.41
32456;BME280;18912;43.270;27.942;2023-01-09T15:24:49;98215.28;;;12.18;74.24
32456;BME280;18912;43.270;27.942;2023-01-09T15:27:15;98216.06;;;12.32;73.42
32456;BME280;18912;43.270;27.942;2023-01-09T15:29:43;98209.91;;;12.11;74.83